Aeroporto :
LOGIN :

Iscrizione | Disclaimer

   EN    FR    IT 

 










Sommario :    VFR   VFR Marginale   IFR   IFR Intensivo   IFR Molto Intensivo
Visibilità : 
Base nubi : 
>= 8 km
>= 3000ft
5 / 8 km
1000 / 3000 ft
1500m / 5 km
500 / 1000 ft
800 / 1500m
200 / 500 ft
< 800m
< 200 ft
Simboli :   Temporali  Nebbia  Neve Forte  Precipitazioni Forti  Vento > 20 kt
SIGMETs :   Varie  Temporali  Ghiacco  Turbolenza  Onda orograficha  Ceneri Vulcaniche







- Altitudine del aeroporto : 15 ft
- Codice IATA : FCO


LIRF - Roma Leonardo da Vinci Fiumicino

ULTIMO METAR :
  • 130150Z 04010KT 9999 SCT050 07/01 Q1014 NOSIG

METARs OBSOLETI :
  • 130120Z 06010KT 9999 -DZ FEW040 SCT050 08/01 Q1015 NOSIG
  • 130050Z 05008KT 030V090 9999 FEW050 08/M01 Q1015 NOSIG
  • 130020Z 06007KT 9999 FEW050 08/M02 Q1015 NOSIG
  • 122350Z 05006KT 360V100 9999 -DZ FEW050 09/M02 Q1015 NOSIG
  • 122320Z 08004KT 040V120 9999 FEW050 08/M01 Q1016 NOSIG

TAF TAF LIRF
Valido dal 13 a 00 ore il 14 a 06 ore UTC


122300Z 1300/1406 08008KT 9999 SCT050
TEMPO 1300/1306 RA
BECMG 1307/1309 14012KT
BECMG 1312/1315 RA
Nessun NOTAM noto per questo aeroporto.



MetMap, La meteo Aeronautica in un colpo d'occhio ! - Copyright ORBIFLY Dicembre 2007 - Disclaimer

ORBIFLY MET'MAP TEAM :

Programmazione e sviluppo : Alexandra Zaïnal
Concezione e sviluppo : Baudouin d'Aumeries
Co-Programmazione e sviluppo : Marc-Olivier Méhu
Supporto tecnico e logistico : Manuel Goepfert
Aiuto per la traduzione : Arnaldo La Scala

Contatto : metmap@orbifly.com




FONTI E CREDITI :

   NOAA